KSDF

Louisville International-Standiford Field Airport

Louisville, Kentucky, USA
METAR KSDF 190456Z 00000KT 7SM BKN041 OVC120 08/04 A3013 RMK AO2 SLP205 T00830039 401670017
Observed Flight Rules
Nov-19 @ 04:56 UTC (15 minutes ago) Visual Flight Rules
Visibility Clouds
7 miles
  • Broken at 4,100' AGL
  • Overcast at 12,000' AGL
Temperatures Readings
Current 8°C / 46°F
Dewpoint 4°C / 39°F
Humidity 76%
Altimeter 30.13" Hg
Pressure 1020.5 hPa
Elevation 146
METAR KSDF 190456Z 00000KT 7SM BKN041 OVC120 08/04 A3013 RMK AO2 SLP205 T00830039 401670017
Observed Flight Rules
Nov-19 @ 04:56 UTC
(15 minutes ago)
VFR
Clouds
  • Broken at 4,100' AGL
  • Overcast at 12,000' AGL
Temperature Dewpoint
8°C / 46°F 4°C / 39°F
Humidity Altimeter Pressure
76% 30.13" Hg 1020.5 hPa